createdAt,value
2018-07-08T00:00:14.196Z,2.93
2018-07-08T00:02:43.175Z,2.87
2018-07-08T00:05:12.514Z,2.30
2018-07-08T00:07:41.751Z,2.10
2018-07-08T00:10:10.986Z,3.00
2018-07-08T00:12:40.119Z,2.43
2018-07-08T00:15:09.366Z,2.33
2018-07-08T00:17:38.576Z,3.10
2018-07-08T00:20:08.101Z,2.07
2018-07-08T00:22:37.280Z,2.53
2018-07-08T00:25:06.982Z,2.70
2018-07-08T00:27:36.223Z,2.23
2018-07-08T00:30:05.383Z,2.60
2018-07-08T00:32:34.445Z,2.40
2018-07-08T00:35:03.649Z,2.97
2018-07-08T00:37:32.854Z,2.40
2018-07-08T00:40:02.042Z,2.10
2018-07-08T00:42:31.394Z,2.80
2018-07-08T00:45:00.431Z,2.63
2018-07-08T00:47:29.638Z,2.33
2018-07-08T00:49:58.822Z,2.33
2018-07-08T00:52:28.142Z,2.73
2018-07-08T00:54:57.349Z,2.90
2018-07-08T00:57:26.331Z,2.53
2018-07-08T00:59:55.434Z,2.37
2018-07-08T01:02:24.630Z,2.70
2018-07-08T01:04:54.409Z,2.77
2018-07-08T01:07:23.659Z,2.93
2018-07-08T01:09:52.814Z,3.10
2018-07-08T01:12:21.958Z,3.10
2018-07-08T01:14:51.126Z,2.50
2018-07-08T01:17:20.320Z,2.73
2018-07-08T01:19:49.531Z,3.00
2018-07-08T01:22:18.611Z,3.10
2018-07-08T01:24:47.699Z,2.70
2018-07-08T01:27:16.846Z,2.60
2018-07-08T01:29:45.994Z,2.90
2018-07-08T01:32:15.115Z,2.80
2018-07-08T01:34:44.270Z,2.83
2018-07-08T01:37:13.496Z,3.10
2018-07-08T01:39:42.546Z,3.07
2018-07-08T01:42:11.616Z,2.93
2018-07-08T01:44:40.747Z,2.70
2018-07-08T01:47:09.988Z,2.53
2018-07-08T01:49:39.036Z,2.67
2018-07-08T01:52:08.056Z,2.73
2018-07-08T01:54:37.543Z,3.40
2018-07-08T01:57:06.879Z,3.57
2018-07-08T01:59:36.323Z,2.43
2018-07-08T02:02:05.759Z,3.07
2018-07-08T02:04:34.952Z,2.63
2018-07-08T02:07:03.937Z,3.53
2018-07-08T02:09:33.050Z,2.80
2018-07-08T02:12:02.266Z,3.00
2018-07-08T02:14:31.403Z,3.30
2018-07-08T02:17:00.662Z,3.67
2018-07-08T02:19:29.994Z,2.53
2018-07-08T02:21:59.119Z,2.43
2018-07-08T02:24:28.251Z,3.50
2018-07-08T02:26:57.487Z,2.70
2018-07-08T02:29:26.637Z,2.83
2018-07-08T02:31:55.866Z,3.20
2018-07-08T02:34:25.727Z,3.07
2018-07-08T02:36:54.979Z,3.10
2018-07-08T02:39:24.390Z,2.77
2018-07-08T02:41:53.546Z,3.40
2018-07-08T02:44:22.742Z,2.97
2018-07-08T02:46:51.853Z,3.37
2018-07-08T02:49:21.266Z,3.20
2018-07-08T02:51:50.527Z,3.80
2018-07-08T02:54:19.877Z,4.70
2018-07-08T02:56:49.086Z,2.90
2018-07-08T02:59:18.378Z,3.00
2018-07-08T03:01:47.642Z,3.00
2018-07-08T03:04:16.838Z,3.03
2018-07-08T03:06:46.161Z,3.20
2018-07-08T03:09:15.339Z,3.17
2018-07-08T03:11:44.454Z,4.20
2018-07-08T03:14:13.618Z,2.70
2018-07-08T03:16:42.743Z,3.37
2018-07-08T03:19:12.131Z,2.80
2018-07-08T03:21:41.361Z,2.60
2018-07-08T03:24:10.430Z,3.30
2018-07-08T03:26:39.538Z,3.90
2018-07-08T03:29:09.104Z,2.97
2018-07-08T03:31:38.263Z,3.20
2018-07-08T03:34:07.330Z,3.10
2018-07-08T03:36:36.633Z,3.20
2018-07-08T03:39:06.982Z,3.30
2018-07-08T03:41:36.127Z,3.30
2018-07-08T03:44:05.526Z,2.63
2018-07-08T03:46:34.920Z,3.80
2018-07-08T03:49:04.127Z,3.40
2018-07-08T03:51:33.551Z,3.07
2018-07-08T03:54:02.730Z,3.70
2018-07-08T03:56:31.850Z,3.37
2018-07-08T03:59:01.019Z,3.47
2018-07-08T04:04:25.357Z,3.40
2018-07-08T04:06:54.187Z,3.00
2018-07-08T04:09:23.274Z,3.00
2018-07-08T04:11:52.054Z,3.80
2018-07-08T04:14:20.851Z,3.53
2018-07-08T04:16:49.779Z,3.40
2018-07-08T04:19:18.518Z,3.57
2018-07-08T04:21:47.149Z,3.70
2018-07-08T04:24:16.042Z,3.50
2018-07-08T04:26:45.134Z,3.47
2018-07-08T04:29:13.703Z,3.50
2018-07-08T04:31:42.407Z,2.83
2018-07-08T04:34:10.996Z,3.33
2018-07-08T04:36:40.119Z,3.30
2018-07-08T04:39:09.778Z,2.80
2018-07-08T04:41:38.670Z,3.50
2018-07-08T04:44:07.558Z,3.70
2018-07-08T04:46:36.823Z,4.00
2018-07-08T04:49:05.625Z,2.63
2018-07-08T04:51:34.342Z,3.93
2018-07-08T04:54:02.967Z,4.40
2018-07-08T04:56:31.817Z,3.50
2018-07-08T04:59:00.699Z,3.50
2018-07-08T05:01:29.530Z,3.30
2018-07-08T05:03:58.143Z,2.87
2018-07-08T05:06:27.042Z,3.30
2018-07-08T05:08:55.694Z,2.60
2018-07-08T05:11:24.423Z,3.20
2018-07-08T05:13:53.427Z,2.73
2018-07-08T05:16:22.109Z,3.10
2018-07-08T05:18:51.002Z,3.23
2018-07-08T05:21:19.919Z,3.50
2018-07-08T05:23:49.004Z,3.20
2018-07-08T05:26:18.085Z,3.27
2018-07-08T05:28:47.419Z,3.50
2018-07-08T05:31:16.354Z,4.07
2018-07-08T05:33:45.155Z,3.77
2018-07-08T05:36:14.267Z,4.33
2018-07-08T05:38:43.142Z,3.00
2018-07-08T05:41:12.064Z,3.30
2018-07-08T05:43:41.392Z,3.60
2018-07-08T05:46:10.043Z,2.80
2018-07-08T05:48:39.739Z,3.23
2018-07-08T05:51:08.486Z,3.60
2018-07-08T05:53:37.174Z,3.10
2018-07-08T05:56:06.012Z,3.50
2018-07-08T05:58:34.915Z,3.60
2018-07-08T06:01:03.854Z,3.17
2018-07-08T06:03:32.484Z,3.47
2018-07-08T06:06:01.578Z,3.83
2018-07-08T06:08:30.658Z,3.57
2018-07-08T06:10:59.563Z,3.10
2018-07-08T06:13:28.443Z,3.60
2018-07-08T06:15:57.371Z,3.67
2018-07-08T06:18:26.058Z,4.23
2018-07-08T06:20:54.775Z,3.43
2018-07-08T06:23:23.807Z,4.23
2018-07-08T06:25:53.121Z,5.03
2018-07-08T06:28:21.895Z,3.67
2018-07-08T06:30:50.892Z,4.10
2018-07-08T06:33:19.562Z,3.60
2018-07-08T06:35:48.444Z,4.40
2018-07-08T06:38:17.363Z,3.97
2018-07-08T06:40:46.151Z,3.93
2018-07-08T06:43:14.922Z,3.97
2018-07-08T06:45:43.829Z,3.80
2018-07-08T06:48:12.906Z,5.17
2018-07-08T06:50:41.595Z,4.20
2018-07-08T06:53:10.436Z,4.37
2018-07-08T06:55:39.299Z,5.33
2018-07-08T06:58:08.267Z,5.60
2018-07-08T07:00:36.905Z,5.60
2018-07-08T07:03:06.048Z,5.40
2018-07-08T07:05:34.927Z,5.30
2018-07-08T07:08:03.506Z,5.13
2018-07-08T07:10:32.531Z,5.40
2018-07-08T07:13:01.411Z,4.90
2018-07-08T07:15:30.164Z,5.20
2018-07-08T07:17:58.791Z,5.43
2018-07-08T07:20:27.886Z,5.97
2018-07-08T07:22:56.620Z,6.10
2018-07-08T07:25:25.666Z,5.37
2018-07-08T07:27:54.371Z,7.13
2018-07-08T07:30:23.411Z,6.80
2018-07-08T07:32:51.991Z,5.93
2018-07-08T07:35:20.739Z,6.63
2018-07-08T07:37:49.528Z,7.20
2018-07-08T07:40:18.604Z,6.30
2018-07-08T07:42:47.327Z,6.40
2018-07-08T07:45:15.951Z,7.13
2018-07-08T07:47:44.851Z,6.30
2018-07-08T07:50:14.055Z,6.80
2018-07-08T07:52:42.851Z,6.60
2018-07-08T07:55:11.744Z,6.83
2018-07-08T07:57:40.588Z,6.93
2018-07-08T08:00:09.524Z,6.70
2018-07-08T08:02:38.379Z,5.90
2018-07-08T08:05:07.506Z,6.53
2018-07-08T08:07:36.232Z,6.47
2018-07-08T08:10:05.709Z,6.33
2018-07-08T08:12:34.574Z,6.23
2018-07-08T08:15:03.466Z,5.33
2018-07-08T08:17:32.260Z,7.07
2018-07-08T08:20:00.903Z,8.33
2018-07-08T08:22:29.758Z,6.60
2018-07-08T08:24:58.491Z,7.07
2018-07-08T08:27:27.407Z,6.40
2018-07-08T08:29:56.190Z,5.83
2018-07-08T08:32:25.507Z,6.40
2018-07-08T08:34:58.239Z,7.07
2018-07-08T08:37:34.548Z,7.77
2018-07-08T08:40:03.763Z,7.50
2018-07-08T08:42:32.451Z,6.30
2018-07-08T08:45:01.637Z,7.43
2018-07-08T08:47:31.159Z,6.97
2018-07-08T08:50:00.244Z,7.37
2018-07-08T08:52:29.187Z,8.20
2018-07-08T08:54:58.253Z,7.37
2018-07-08T08:57:27.215Z,7.90
2018-07-08T08:59:56.031Z,7.80
2018-07-08T09:02:24.649Z,7.20
2018-07-08T09:04:53.451Z,6.50
2018-07-08T09:07:22.808Z,7.13
2018-07-08T09:09:51.796Z,6.93
2018-07-08T09:12:20.648Z,7.27
2018-07-08T09:14:49.746Z,6.67
2018-07-08T09:17:18.911Z,6.40
2018-07-08T09:19:48.369Z,6.73
2018-07-08T09:22:17.827Z,7.40
2018-07-08T09:24:47.571Z,7.77
2018-07-08T09:27:16.379Z,7.30
2018-07-08T09:29:45.216Z,6.97
2018-07-08T09:32:13.931Z,6.30
2018-07-08T09:34:43.206Z,7.20
2018-07-08T09:37:12.383Z,7.07
2018-07-08T09:39:41.311Z,7.70
2018-07-08T09:42:10.215Z,6.23
2018-07-08T09:44:39.182Z,6.50
2018-07-08T09:47:07.875Z,7.20
2018-07-08T09:49:36.984Z,7.40
2018-07-08T09:52:06.582Z,9.57
2018-07-08T09:54:35.475Z,8.53
2018-07-08T09:57:04.276Z,7.47
2018-07-08T09:59:33.255Z,7.00
2018-07-08T10:02:02.333Z,6.40
2018-07-08T10:04:31.323Z,7.60
2018-07-08T10:07:00.351Z,7.10
2018-07-08T10:09:29.431Z,7.70
2018-07-08T10:11:58.541Z,7.50
2018-07-08T10:14:27.828Z,7.03
2018-07-08T10:16:57.006Z,7.50
2018-07-08T10:19:25.721Z,6.93
2018-07-08T10:21:54.396Z,7.70
2018-07-08T10:24:23.222Z,7.13
2018-07-08T10:27:02.112Z,7.80
2018-07-08T10:29:30.802Z,7.73
2018-07-08T10:31:59.707Z,8.33
2018-07-08T10:34:28.589Z,8.00
2018-07-08T10:36:57.484Z,7.50
2018-07-08T10:39:26.208Z,6.90
2018-07-08T10:41:55.069Z,7.53
2018-07-08T10:44:23.803Z,7.40
2018-07-08T10:46:52.639Z,6.90
2018-07-08T10:49:21.393Z,7.70
2018-07-08T10:51:50.417Z,7.93
2018-07-08T10:54:19.296Z,6.20
2018-07-08T10:56:47.895Z,7.80
2018-07-08T10:59:16.545Z,7.40
2018-07-08T11:01:45.264Z,7.77
2018-07-08T11:04:17.074Z,7.20
2018-07-08T11:06:46.175Z,7.23
2018-07-08T11:09:15.088Z,7.20
2018-07-08T11:11:44.212Z,7.00
2018-07-08T11:14:13.087Z,7.17
2018-07-08T11:16:42.178Z,6.73
2018-07-08T11:19:11.273Z,5.80
2018-07-08T11:21:40.068Z,6.97
2018-07-08T11:24:09.071Z,6.27
2018-07-08T11:26:38.003Z,6.50
2018-07-08T11:29:07.040Z,6.57
2018-07-08T11:31:35.927Z,6.13
2018-07-08T11:34:04.616Z,6.47
2018-07-08T11:36:33.700Z,5.57
2018-07-08T11:39:02.599Z,6.70
2018-07-08T11:41:31.507Z,6.40
2018-07-08T11:44:00.627Z,5.80
2018-07-08T11:46:29.479Z,6.00
2018-07-08T11:48:58.369Z,5.60
2018-07-08T11:51:27.283Z,6.10
2018-07-08T11:53:56.152Z,6.27
2018-07-08T11:56:25.082Z,6.23
2018-07-08T11:58:53.936Z,6.97
2018-07-08T12:01:22.788Z,6.07
2018-07-08T12:03:51.686Z,6.40
2018-07-08T12:06:20.557Z,6.50
2018-07-08T12:08:49.208Z,6.50
2018-07-08T12:11:17.987Z,6.53
2018-07-08T12:13:46.570Z,6.33
2018-07-08T12:16:15.436Z,6.77
2018-07-08T12:18:44.534Z,6.80
2018-07-08T12:21:13.389Z,6.13
2018-07-08T12:23:43.044Z,6.17
2018-07-08T12:26:12.200Z,6.47
2018-07-08T12:28:41.245Z,5.80
2018-07-08T12:31:09.918Z,6.70
2018-07-08T12:33:41.259Z,6.40
2018-07-08T12:36:10.580Z,6.30
2018-07-08T12:38:39.727Z,6.90
2018-07-08T12:41:08.755Z,7.00
2018-07-08T12:43:37.876Z,7.07
2018-07-08T12:46:06.961Z,5.97
2018-07-08T12:48:35.689Z,5.90
2018-07-08T12:51:04.735Z,6.83
2018-07-08T12:53:33.600Z,6.40
2018-07-08T12:56:02.536Z,6.50
2018-07-08T12:58:31.707Z,6.43
2018-07-08T13:01:00.584Z,6.23
2018-07-08T13:03:29.412Z,5.67
2018-07-08T13:05:58.355Z,5.50
2018-07-08T13:08:27.488Z,5.63
2018-07-08T13:10:56.597Z,5.00
2018-07-08T13:13:25.477Z,5.50
2018-07-08T13:15:54.183Z,4.70
2018-07-08T13:18:23.039Z,5.20
2018-07-08T13:20:51.850Z,5.37
2018-07-08T13:23:20.507Z,4.77
2018-07-08T13:25:49.258Z,5.47
2018-07-08T13:28:18.263Z,4.80
2018-07-08T13:30:47.097Z,5.57
2018-07-08T13:33:15.826Z,3.80
2018-07-08T13:35:44.799Z,4.77
2018-07-08T13:38:13.891Z,4.60
2018-07-08T13:40:43.462Z,5.10
2018-07-08T13:43:12.676Z,4.17
2018-07-08T13:45:41.323Z,4.07
2018-07-08T13:48:10.925Z,4.00
2018-07-08T13:50:40.151Z,3.33
2018-07-08T13:53:09.113Z,4.10
2018-07-08T13:55:37.888Z,3.60
2018-07-08T13:58:06.563Z,3.67
2018-07-08T14:00:35.412Z,3.47
2018-07-08T14:03:04.336Z,3.10
2018-07-08T14:05:33.327Z,3.40
2018-07-08T14:08:02.858Z,3.43
2018-07-08T14:10:31.686Z,3.10
2018-07-08T14:13:00.408Z,3.63
2018-07-08T14:15:29.184Z,2.73
2018-07-08T14:17:57.815Z,2.90
2018-07-08T14:20:26.596Z,2.60
2018-07-08T14:22:55.366Z,2.60
2018-07-08T14:25:24.116Z,2.73
2018-07-08T14:27:53.328Z,2.30
2018-07-08T14:30:21.955Z,2.90
2018-07-08T14:32:51.092Z,3.17
2018-07-08T14:35:19.784Z,2.77
2018-07-08T14:37:48.507Z,3.07
2018-07-08T14:40:17.766Z,2.83
2018-07-08T14:42:47.047Z,3.30
2018-07-08T14:45:16.219Z,3.47
2018-07-08T14:47:45.075Z,3.67
2018-07-08T14:50:13.799Z,3.73
2018-07-08T14:52:42.657Z,3.83
2018-07-08T14:55:11.407Z,4.00
2018-07-08T14:57:40.410Z,3.87
2018-07-08T15:00:09.452Z,4.43
2018-07-08T15:02:38.202Z,4.50
2018-07-08T15:05:06.989Z,4.80
2018-07-08T15:07:35.987Z,4.23
2018-07-08T15:10:05.064Z,4.40
2018-07-08T15:12:33.751Z,5.13
2018-07-08T15:15:02.639Z,4.40
2018-07-08T15:17:31.621Z,4.73
2018-07-08T15:20:00.438Z,5.17
2018-07-08T15:22:29.328Z,5.53
2018-07-08T15:24:58.306Z,4.47
2018-07-08T15:27:27.523Z,5.33
2018-07-08T15:29:56.996Z,4.50
2018-07-08T15:32:26.119Z,5.03
2018-07-08T15:34:55.187Z,5.07
2018-07-08T15:37:24.294Z,4.60
2018-07-08T15:39:53.369Z,4.60
2018-07-08T15:42:22.487Z,5.40
2018-07-08T15:44:51.350Z,4.20
2018-07-08T15:47:20.574Z,4.33
2018-07-08T15:49:49.378Z,4.20
2018-07-08T15:52:18.195Z,4.00
2018-07-08T15:54:47.131Z,4.13
2018-07-08T15:57:15.902Z,4.37
2018-07-08T15:59:44.782Z,4.07
2018-07-08T16:02:13.816Z,3.50
2018-07-08T16:04:42.706Z,4.10
2018-07-08T16:07:11.627Z,3.93
2018-07-08T16:09:40.487Z,4.33
2018-07-08T16:12:09.279Z,4.53
2018-07-08T16:14:37.973Z,4.00
2018-07-08T16:17:06.971Z,4.60
2018-07-08T16:19:35.742Z,4.07
2018-07-08T16:22:04.584Z,4.27
2018-07-08T16:24:33.646Z,4.70
2018-07-08T16:27:02.743Z,4.57
2018-07-08T16:29:35.883Z,3.93
2018-07-08T16:32:04.878Z,4.20
2018-07-08T16:34:33.715Z,4.70
2018-07-08T16:37:02.805Z,4.23
2018-07-08T16:39:31.682Z,4.70
2018-07-08T16:42:00.459Z,4.27
2018-07-08T16:44:29.055Z,4.10
2018-07-08T16:46:58.032Z,4.87
2018-07-08T16:49:27.774Z,4.60
2018-07-08T16:51:56.447Z,4.50
2018-07-08T16:54:25.536Z,4.57
2018-07-08T16:56:54.907Z,4.93
2018-07-08T16:59:23.739Z,4.17
2018-07-08T17:01:52.743Z,4.50
2018-07-08T17:04:21.599Z,4.67
2018-07-08T17:06:50.712Z,5.57
2018-07-08T17:09:19.405Z,5.00
2018-07-08T17:11:48.299Z,4.53
2018-07-08T17:14:16.985Z,4.80
2018-07-08T17:16:45.956Z,4.57
2018-07-08T17:19:14.607Z,4.70
2018-07-08T17:21:43.747Z,4.80
2018-07-08T17:24:18.229Z,4.80
2018-07-08T17:26:48.507Z,4.70
2018-07-08T17:29:17.608Z,4.60
2018-07-08T17:31:46.362Z,4.10
2018-07-08T17:34:15.151Z,4.63
2018-07-08T17:36:44.258Z,4.23
2018-07-08T17:39:13.936Z,4.10
2018-07-08T17:41:42.872Z,3.80
2018-07-08T17:44:12.173Z,4.40
2018-07-08T17:46:42.025Z,4.53
2018-07-08T17:49:10.959Z,3.87
2018-07-08T17:51:40.052Z,4.90
2018-07-08T17:54:08.843Z,4.20
2018-07-08T17:56:38.411Z,4.53
2018-07-08T17:59:08.019Z,3.93
2018-07-08T18:01:37.183Z,4.23
2018-07-08T18:04:06.101Z,4.47
2018-07-08T18:06:35.157Z,4.13
2018-07-08T18:09:05.096Z,3.97
2018-07-08T18:11:34.183Z,3.50
2018-07-08T18:14:03.895Z,3.90
2018-07-08T18:16:33.231Z,4.10
2018-07-08T18:19:02.647Z,3.73
2018-07-08T18:21:32.378Z,3.70
2018-07-08T18:24:01.476Z,3.87
2018-07-08T18:26:31.366Z,4.43
2018-07-08T18:29:01.066Z,4.10
2018-07-08T18:31:29.964Z,3.47
2018-07-08T18:34:00.041Z,4.10
2018-07-08T18:36:29.307Z,3.40
2018-07-08T18:38:58.400Z,4.10
2018-07-08T18:41:27.617Z,4.00
2018-07-08T18:43:56.955Z,3.20
2018-07-08T18:46:26.093Z,3.87
2018-07-08T18:48:54.986Z,4.00
2018-07-08T18:51:24.152Z,3.70
2018-07-08T18:53:52.970Z,3.53
2018-07-08T18:56:22.347Z,3.70
2018-07-08T18:58:51.155Z,3.57
2018-07-08T19:01:20.070Z,4.60
2018-07-08T19:03:48.923Z,3.77
2018-07-08T19:06:17.647Z,4.03
2018-07-08T19:08:46.503Z,3.80
2018-07-08T19:11:15.448Z,3.83
2018-07-08T19:13:44.512Z,3.90
2018-07-08T19:16:13.212Z,3.90
2018-07-08T19:18:41.971Z,3.70
2018-07-08T19:21:10.979Z,4.20
2018-07-08T19:23:40.221Z,3.90
2018-07-08T19:26:09.168Z,3.83
2018-07-08T19:28:38.069Z,3.80
2018-07-08T19:31:06.975Z,4.60
2018-07-08T19:33:36.216Z,4.37
2018-07-08T19:36:05.564Z,4.00
2018-07-08T19:38:34.243Z,3.60
2018-07-08T19:41:03.162Z,3.77
2018-07-08T19:43:32.072Z,4.00
2018-07-08T19:46:01.312Z,4.00
2018-07-08T19:48:30.618Z,4.43
2018-07-08T19:50:59.540Z,4.20
2018-07-08T19:53:28.662Z,4.17
2018-07-08T19:55:57.740Z,3.87
2018-07-08T19:58:26.601Z,3.67
2018-07-08T20:00:55.502Z,3.77
2018-07-08T20:03:24.388Z,3.90
2018-07-08T20:05:53.260Z,3.97
2018-07-08T20:08:22.151Z,3.87
2018-07-08T20:10:51.075Z,3.87
2018-07-08T20:13:20.000Z,3.80
2018-07-08T20:15:49.243Z,3.83
2018-07-08T20:18:18.522Z,3.90
2018-07-08T20:20:47.631Z,3.73
2018-07-08T20:23:16.724Z,3.77
2018-07-08T20:25:46.056Z,3.60
2018-07-08T20:28:14.806Z,4.53
2018-07-08T20:30:43.484Z,3.77
2018-07-08T20:33:12.290Z,3.70
2018-07-08T20:35:41.257Z,4.10
2018-07-08T20:38:09.947Z,4.60
2018-07-08T20:40:38.755Z,3.87
2018-07-08T20:43:07.642Z,4.43
2018-07-08T20:45:36.356Z,4.77
2018-07-08T20:48:05.176Z,4.30
2018-07-08T20:50:34.127Z,4.50
2018-07-08T20:53:03.018Z,4.20
2018-07-08T20:55:31.951Z,4.17
2018-07-08T20:58:00.594Z,4.27
2018-07-08T21:00:29.366Z,4.30
2018-07-08T21:02:58.155Z,4.23
2018-07-08T21:05:27.119Z,4.00
2018-07-08T21:07:55.919Z,4.27
2018-07-08T21:10:24.719Z,4.30
2018-07-08T21:12:53.738Z,4.80
2018-07-08T21:15:22.642Z,4.80
2018-07-08T21:17:51.672Z,5.07
2018-07-08T21:20:20.524Z,4.10
2018-07-08T21:22:49.415Z,4.30
2018-07-08T21:25:18.203Z,5.07
2018-07-08T21:27:47.666Z,4.27
2018-07-08T21:30:16.806Z,4.80
2018-07-08T21:32:45.680Z,4.40
2018-07-08T21:35:14.591Z,4.60
2018-07-08T21:37:43.444Z,4.10
2018-07-08T21:40:12.227Z,3.93
2018-07-08T21:42:41.230Z,4.87
2018-07-08T21:45:10.083Z,3.93
2018-07-08T21:47:39.120Z,4.40
2018-07-08T21:50:08.513Z,4.63
2018-07-08T21:52:37.331Z,4.17
2018-07-08T21:55:06.718Z,4.47
2018-07-08T21:57:35.812Z,4.27
2018-07-08T22:00:05.231Z,3.57
2018-07-08T22:02:34.113Z,4.30
2018-07-08T22:05:03.205Z,4.50
2018-07-08T22:07:37.352Z,4.00
2018-07-08T22:10:06.596Z,4.10
2018-07-08T22:12:35.722Z,4.40
2018-07-08T22:15:04.795Z,4.67
2018-07-08T22:17:34.294Z,4.23
2018-07-08T22:20:03.205Z,4.83
2018-07-08T22:22:31.886Z,4.53
2018-07-08T22:25:00.572Z,4.10
2018-07-08T22:27:29.499Z,4.73
2018-07-08T22:29:58.743Z,4.60
2018-07-08T22:32:27.338Z,4.80
2018-07-08T22:34:56.240Z,4.80
2018-07-08T22:37:25.061Z,4.60
2018-07-08T22:39:54.015Z,4.97
2018-07-08T22:42:22.767Z,5.00
2018-07-08T22:44:51.683Z,4.83
2018-07-08T22:47:21.659Z,4.50
2018-07-08T22:49:50.496Z,5.87
2018-07-08T22:52:19.620Z,5.03
2018-07-08T22:54:48.467Z,4.80
2018-07-08T22:57:17.634Z,4.77
2018-07-08T22:59:57.696Z,4.67
2018-07-08T23:02:37.695Z,5.40
2018-07-08T23:05:06.713Z,4.87
2018-07-08T23:07:35.531Z,5.07
2018-07-08T23:10:04.550Z,4.57
2018-07-08T23:12:33.427Z,5.20
2018-07-08T23:15:02.542Z,4.70
2018-07-08T23:17:31.853Z,4.70
2018-07-08T23:20:01.082Z,4.83
2018-07-08T23:22:40.975Z,4.40
2018-07-08T23:25:10.764Z,4.90
2018-07-08T23:27:39.366Z,4.60
2018-07-08T23:30:08.166Z,4.20
2018-07-08T23:32:37.264Z,4.63
2018-07-08T23:35:06.594Z,5.20
2018-07-08T23:37:36.085Z,4.23
2018-07-08T23:40:05.194Z,5.20
2018-07-08T23:42:34.191Z,4.83
2018-07-08T23:45:03.384Z,4.97
2018-07-08T23:47:32.282Z,4.90
2018-07-08T23:50:01.154Z,4.63
2018-07-08T23:52:30.251Z,5.20
2018-07-08T23:54:59.180Z,4.37
2018-07-08T23:57:28.318Z,5.13
2018-07-08T23:59:57.110Z,5.20
